Quinsam — VY6800 — position and weather

sailwx.info

Track history (hours):
 
Tides and Currents Weather Stations Pressure Air Temp Water Temp Dewpoint Dewpoint Depression Visibility Wind Speed Wind Dir Waves Ship Positions

Quinsam

Last reported at 2014-Oct-20 06:04 UTC. Time now 2014-Oct-20 09:59 UTC.
Position N 49°11' W 123°52'.

Length 88 m; draft 1.5 m.

Type: Ship. MMSI: 316001266.

Date/timePositionNaut miles runAvg speedWind from/ knotsBaromVisibWave heightAir tempDewpointWater temp
2014-Oct-20 06:04N 49°11' W 123°52'3 4.8
2014-Oct-20 05:33N 49°10' W 123°55'1 0.4
2014-Oct-20 03:33N 49°10' W 123°54'1 0.9
2014-Oct-20 02:33N 49°11' W 123°53'1 0.7
2014-Oct-20 01:32N 49°11' W 123°52'0 0.1
2014-Oct-20 00:21N 49°11' W 123°52'1 1.5
2014-Oct-19 23:33N 49°10' W 123°53'2 1.7
2014-Oct-19 22:33N 49°10' W 123°56'3 2.2
2014-Oct-19 21:15N 49°11' W 123°52'2 2.6
2014-Oct-19 20:33N 49°10' W 123°54'1 1.2
2014-Oct-19 19:31N 49°11' W 123°52'1 0.6
2014-Oct-19 18:33N 49°11' W 123°52'3 2.7
2014-Oct-19 17:29N 49°10' W 123°56'3 2.7
2014-Oct-19 16:32N 49°11' W 123°52'0 0.3
2014-Oct-19 15:30N 49°11' W 123°52'3 3.0
2014-Oct-19 14:33N 49°10' W 123°56'2 2.4
2014-Oct-19 13:33N 49°11' W 123°52'1 0.5
2014-Oct-19 12:31N 49°11' W 123°52'0 0.0
2014-Oct-19 11:28N 49°11' W 123°52'0 0.0
2014-Oct-19 06:26N 49°11' W 123°52'0 0.0
2014-Oct-19 05:26N 49°11' W 123°52'1 0.6
2014-Oct-19 03:33N 49°11' W 123°53'0 0.1
2014-Oct-19 02:33N 49°11' W 123°53'1 1.0
2014-Oct-19 01:32N 49°11' W 123°52'0 0.1
2014-Oct-19 00:19N 49°11' W 123°52'1 1.8
2014-Oct-18 23:33N 49°10' W 123°54'1 1.4
2014-Oct-18 22:29N 49°10' W 123°56'1 0.6
2014-Oct-18 20:33N 49°10' W 123°54'1 0.9
2014-Oct-18 19:28N 49°11' W 123°53'1 0.8
2014-Oct-18 18:26N 49°11' W 123°52'3 3.3
2014-Oct-18 17:33N 49°10' W 123°56'3 2.6
2014-Oct-18 16:31N 49°11' W 123°52'0 0.2
2014-Oct-18 15:26N 49°11' W 123°52'0 0.1
2014-Oct-18 14:28N 49°11' W 123°52'1 0.6
2014-Oct-18 13:33N 49°11' W 123°52'0 0.0
2014-Oct-18 06:21N 49°11' W 123°52'0 0.5
2014-Oct-18 05:26N 49°11' W 123°52'0 0.1
2014-Oct-18 04:04N 49°11' W 123°52'1 2.7
2014-Oct-18 03:33N 49°10' W 123°54'1 0.8
2014-Oct-18 02:33N 49°11' W 123°53'0 0.1
2014-Oct-18 01:25N 49°11' W 123°52'1 0.5
2014-Oct-18 00:25N 49°11' W 123°52'1 0.6
2014-Oct-17 23:33N 49°11' W 123°52'2 2.4
2014-Oct-17 22:33N 49°10' W 123°56'3 2.4
2014-Oct-17 21:23N 49°11' W 123°52'2 2.8
2014-Oct-17 20:33N 49°10' W 123°55'1 0.6
2014-Oct-17 19:33N 49°10' W 123°56'2 1.8
2014-Oct-17 18:34N 49°11' W 123°53'2 1.7
2014-Oct-17 17:31N 49°10' W 123°56'1 0.5
2014-Oct-17 16:33N 49°10' W 123°55'2 2.3
2014-Oct-17 15:33N 49°11' W 123°52'0 0.1
2014-Oct-17 14:27N 49°11' W 123°52'1 0.6
2014-Oct-17 13:33N 49°11' W 123°52'0 0.1
2014-Oct-17 12:33N 49°11' W 123°52'0 0.2
2014-Oct-17 10:13N 49°11' W 123°52'0 0.1
2014-Oct-17 06:23N 49°11' W 123°52'0 0.3
2014-Oct-17 05:26N 49°11' W 123°52'0 0.0
2014-Oct-17 04:32N 49°11' W 123°52'1 1.4
2014-Oct-17 03:34N 49°10' W 123°54'1 0.7
2014-Oct-17 02:34N 49°11' W 123°53'0 0.4
2014-Oct-17 01:32N 49°11' W 123°52'0 0.2
2014-Oct-17 00:25N 49°11' W 123°52'1 1.0
2014-Oct-16 23:34N 49°11' W 123°53'2 2.0
2014-Oct-16 22:33N 49°10' W 123°56'3 2.3
2014-Oct-16 21:20N 49°11' W 123°52'1 1.6
2014-Oct-16 20:34N 49°10' W 123°54'2 1.4
2014-Oct-16 19:28N 49°10' W 123°56'1 0.7
2014-Oct-16 18:32N 49°10' W 123°55'1 0.7
2014-Oct-16 17:32N 49°10' W 123°56'0 0.0
2014-Oct-16 16:34N 49°10' W 123°56'2 2.3
2014-Oct-16 15:33N 49°11' W 123°53'1 0.6
2014-Oct-16 14:32N 49°11' W 123°52'0 0.1
2014-Oct-16 13:32N 49°11' W 123°52'0 0.4
2014-Oct-16 12:33N 49°11' W 123°52'0 0.0
2014-Oct-16 06:25N 49°11' W 123°52'3 2.9
2014-Oct-16 05:33N 49°10' W 123°56'1 0.7
2014-Oct-16 03:33N 49°10' W 123°54'0 0.3
2014-Oct-16 02:33N 49°11' W 123°53'1 0.9
2014-Oct-16 01:29N 49°11' W 123°52'1 0.5
2014-Oct-16 00:20N 49°11' W 123°53'0 0.4
2014-Oct-15 23:32N 49°11' W 123°53'2 1.8
2014-Oct-15 22:28N 49°10' W 123°56'2 1.8
2014-Oct-15 21:11N 49°11' W 123°52'2 2.4
2014-Oct-15 20:32N 49°10' W 123°55'1 0.7
2014-Oct-15 19:25N 49°10' W 123°56'1 1.5
2014-Oct-15 18:33N 49°10' W 123°54'1 0.9
2014-Oct-15 17:31N 49°10' W 123°55'0 0.1
2014-Oct-15 16:18N 49°10' W 123°55'1 1.4
2014-Oct-15 15:33N 49°10' W 123°54'2 1.4
2014-Oct-15 14:26N 49°11' W 123°52'0 0.5
2014-Oct-15 13:33N 49°11' W 123°52'0 0.0
2014-Oct-15 06:23N 49°11' W 123°52'1 0.6
2014-Oct-15 05:30N 49°11' W 123°52'1 0.7
2014-Oct-15 03:33N 49°10' W 123°54'0 0.2
2014-Oct-15 02:33N 49°10' W 123°53'1 1.1
2014-Oct-15 01:31N 49°11' W 123°52'0 0.1
2014-Oct-15 00:28N 49°11' W 123°52'0 0.2
2014-Oct-14 23:33N 49°11' W 123°52'3 2.7
2014-Oct-14 22:32N 49°10' W 123°56'3 2.9
2014-Oct-14 21:33N 49°11' W 123°52'1 0.6
2014-Oct-14 20:09N 49°11' W 123°53'2 2.8
2014-Oct-14 19:33N 49°10' W 123°55'1 0.4
2014-Oct-14 17:32N 49°10' W 123°54'1 1.0
2014-Oct-14 16:24N 49°10' W 123°56'1 0.6
2014-Oct-14 15:33N 49°10' W 123°55'1 1.2
2014-Oct-14 14:23N 49°11' W 123°53'0 0.0
2014-Oct-14 06:19N 49°11' W 123°53'0 0.1
2014-Oct-14 05:22N 49°11' W 123°53'1 0.8
2014-Oct-14 03:33N 49°10' W 123°55'1 0.9
2014-Oct-14 02:33N 49°11' W 123°53'0 0.3
2014-Oct-14 01:24N 49°11' W 123°53'0 0.4
2014-Oct-14 00:12N 49°11' W 123°54'1 1.2
2014-Oct-13 23:33N 49°11' W 123°52'2 2.3
2014-Oct-13 22:32N 49°10' W 123°56'3 3.0
2014-Oct-13 21:34N 49°11' W 123°52'3 2.8
2014-Oct-13 20:34N 49°10' W 123°56'0 0.1
2014-Oct-13 19:28N 49°10' W 123°56'2 2.0
2014-Oct-13 18:33N 49°11' W 123°53'2 1.6
2014-Oct-13 17:25N 49°10' W 123°56'0 0.0
2014-Oct-13 16:32N 49°10' W 123°56'2 2.4
2014-Oct-13 15:33N 49°11' W 123°52'0 0.1
2014-Oct-13 14:14N 49°11' W 123°53'0 0.5
2014-Oct-13 13:33N 49°11' W 123°52'2 0.3
2014-Oct-13 05:33N 49°10' W 123°55'3 1.8
2014-Oct-13 04:06N 49°11' W 123°52'2 4.2
2014-Oct-13 03:33N 49°10' W 123°55'1 0.8
2014-Oct-13 02:33N 49°10' W 123°54'1 1.1
2014-Oct-13 01:33N 49°11' W 123°52'1 0.6
2014-Oct-13 00:16N 49°11' W 123°53'0 0.5
2014-Oct-12 23:33N 49°11' W 123°53'2 1.4
2014-Oct-12 22:25N 49°10' W 123°55'2 2.6
2014-Oct-12 21:30N 49°11' W 123°52'3 2.5
2014-Oct-12 20:20N 49°10' W 123°56'1 1.8
2014-Oct-12 19:34N 49°10' W 123°54'2 1.5
2014-Oct-12 18:32N 49°11' W 123°52'3 2.2
2014-Oct-12 17:13N 49°10' W 123°56'2 2.1
2014-Oct-12 16:27N 49°11' W 123°54'1 0.5
2014-Oct-12 15:20N 49°11' W 123°53'1 0.4
2014-Oct-12 13:25N 49°11' W 123°52'0 0.0
2014-Oct-12 08:26N 49°11' W 123°52'0 0.0
2014-Oct-12 07:26N 49°11' W 123°52'0 0.0
2014-Oct-12 06:27N 49°11' W 123°52'0 0.0
2014-Oct-12 05:33N 49°11' W 123°52'0 0.0
2014-Oct-12 04:33N 49°11' W 123°52'1 1.3
2014-Oct-12 03:33N 49°10' W 123°53'0 0.3
2014-Oct-12 02:33N 49°11' W 123°53'1 1.0
2014-Oct-12 01:33N 49°11' W 123°52'0 0.0
2014-Oct-12 00:33N 49°11' W 123°52'1 1.5
2014-Oct-11 23:34N 49°10' W 123°54'1 1.3
2014-Oct-11 22:29N 49°10' W 123°56'3 3.1
2014-Oct-11 21:33N 49°11' W 123°52'3 2.8
2014-Oct-11 20:32N 49°10' W 123°56'0 0.0
2014-Oct-11 19:19N 49°10' W 123°56'2 3.0
2014-Oct-11 18:33N 49°11' W 123°52'2 1.5
2014-Oct-11 17:09N 49°10' W 123°56'2 3.4
2014-Oct-11 16:32N 49°11' W 123°52'1 0.5
2014-Oct-11 15:20N 49°11' W 123°53'0 0.4
2014-Oct-11 14:13N 49°10' W 123°54'0 0.0
2014-Oct-11 06:15N 49°10' W 123°54'1 0.6
2014-Oct-11 05:19N 49°11' W 123°53'1 0.4
2014-Oct-11 03:33N 49°10' W 123°54'1 0.6
2014-Oct-11 02:33N 49°11' W 123°53'0 0.2
2014-Oct-11 01:30N 49°11' W 123°53'1 0.9
2014-Oct-11 00:25N 49°11' W 123°52'1 0.5
2014-Oct-10 23:09N 49°11' W 123°53'2 3.6
2014-Oct-10 22:33N 49°10' W 123°56'2 1.7
2014-Oct-10 21:18N 49°11' W 123°53'0 0.4
2014-Oct-10 20:31N 49°11' W 123°52'2 2.2
2014-Oct-10 19:24N 49°10' W 123°56'1 1.5
2014-Oct-10 18:33N 49°10' W 123°54'1 1.1
2014-Oct-10 17:27N 49°10' W 123°56'0 0.0
2014-Oct-10 16:17N 49°10' W 123°56'1 1.9
2014-Oct-10 15:33N 49°10' W 123°54'1 0.4
2014-Oct-10 14:24N 49°11' W 123°53'1 0.5
2014-Oct-10 13:10N 49°10' W 123°54'2 0.2
2014-Oct-10 06:28N 49°11' W 123°52'  
Track history (hours):
 
Tides and Currents Weather Stations Pressure Air Temp Water Temp Dewpoint Dewpoint Depression Visibility Wind Speed Wind Dir Waves Ship Positions

Quinsam

Last reported at 2014-Oct-20 06:04 UTC. Time now 2014-Oct-20 09:59 UTC.
Position N 49°11' W 123°52'.

Length 88 m; draft 1.5 m.

Type: Ship. MMSI: 316001266.

Date/timePositionNaut miles runAvg speedWind from/ knotsBaromVisibWave heightAir tempDewpointWater temp
2014-Oct-20 06:04N 49°11' W 123°52'3 4.8
2014-Oct-20 05:33N 49°10' W 123°55'1 0.4
2014-Oct-20 03:33N 49°10' W 123°54'1 0.9
2014-Oct-20 02:33N 49°11' W 123°53'1 0.7
2014-Oct-20 01:32N 49°11' W 123°52'0 0.1
2014-Oct-20 00:21N 49°11' W 123°52'1 1.5
2014-Oct-19 23:33N 49°10' W 123°53'2 1.7
2014-Oct-19 22:33N 49°10' W 123°56'3 2.2
2014-Oct-19 21:15N 49°11' W 123°52'2 2.6
2014-Oct-19 20:33N 49°10' W 123°54'1 1.2
2014-Oct-19 19:31N 49°11' W 123°52'1 0.6
2014-Oct-19 18:33N 49°11' W 123°52'3 2.7
2014-Oct-19 17:29N 49°10' W 123°56'3 2.7
2014-Oct-19 16:32N 49°11' W 123°52'0 0.3
2014-Oct-19 15:30N 49°11' W 123°52'3 3.0
2014-Oct-19 14:33N 49°10' W 123°56'2 2.4
2014-Oct-19 13:33N 49°11' W 123°52'1 0.5
2014-Oct-19 12:31N 49°11' W 123°52'0 0.0
2014-Oct-19 11:28N 49°11' W 123°52'0 0.0
2014-Oct-19 06:26N 49°11' W 123°52'0 0.0
2014-Oct-19 05:26N 49°11' W 123°52'1 0.6
2014-Oct-19 03:33N 49°11' W 123°53'0 0.1
2014-Oct-19 02:33N 49°11' W 123°53'1 1.0
2014-Oct-19 01:32N 49°11' W 123°52'0 0.1
2014-Oct-19 00:19N 49°11' W 123°52'1 1.8
2014-Oct-18 23:33N 49°10' W 123°54'1 1.4
2014-Oct-18 22:29N 49°10' W 123°56'1 0.6
2014-Oct-18 20:33N 49°10' W 123°54'1 0.9
2014-Oct-18 19:28N 49°11' W 123°53'1 0.8
2014-Oct-18 18:26N 49°11' W 123°52'3 3.3
2014-Oct-18 17:33N 49°10' W 123°56'3 2.6
2014-Oct-18 16:31N 49°11' W 123°52'0 0.2
2014-Oct-18 15:26N 49°11' W 123°52'0 0.1
2014-Oct-18 14:28N 49°11' W 123°52'1 0.6
2014-Oct-18 13:33N 49°11' W 123°52'0 0.0
2014-Oct-18 06:21N 49°11' W 123°52'0 0.5
2014-Oct-18 05:26N 49°11' W 123°52'0 0.1
2014-Oct-18 04:04N 49°11' W 123°52'1 2.7
2014-Oct-18 03:33N 49°10' W 123°54'1 0.8
2014-Oct-18 02:33N 49°11' W 123°53'0 0.1
2014-Oct-18 01:25N 49°11' W 123°52'1 0.5
2014-Oct-18 00:25N 49°11' W 123°52'1 0.6
2014-Oct-17 23:33N 49°11' W 123°52'2 2.4
2014-Oct-17 22:33N 49°10' W 123°56'3 2.4
2014-Oct-17 21:23N 49°11' W 123°52'2 2.8
2014-Oct-17 20:33N 49°10' W 123°55'1 0.6
2014-Oct-17 19:33N 49°10' W 123°56'2 1.8
2014-Oct-17 18:34N 49°11' W 123°53'2 1.7
2014-Oct-17 17:31N 49°10' W 123°56'1 0.5
2014-Oct-17 16:33N 49°10' W 123°55'2 2.3
2014-Oct-17 15:33N 49°11' W 123°52'0 0.1
2014-Oct-17 14:27N 49°11' W 123°52'1 0.6
2014-Oct-17 13:33N 49°11' W 123°52'0 0.1
2014-Oct-17 12:33N 49°11' W 123°52'0 0.2
2014-Oct-17 10:13N 49°11' W 123°52'0 0.1
2014-Oct-17 06:23N 49°11' W 123°52'0 0.3
2014-Oct-17 05:26N 49°11' W 123°52'0 0.0
2014-Oct-17 04:32N 49°11' W 123°52'1 1.4
2014-Oct-17 03:34N 49°10' W 123°54'1 0.7
2014-Oct-17 02:34N 49°11' W 123°53'0 0.4
2014-Oct-17 01:32N 49°11' W 123°52'0 0.2
2014-Oct-17 00:25N 49°11' W 123°52'1 1.0
2014-Oct-16 23:34N 49°11' W 123°53'2 2.0
2014-Oct-16 22:33N 49°10' W 123°56'3 2.3
2014-Oct-16 21:20N 49°11' W 123°52'1 1.6
2014-Oct-16 20:34N 49°10' W 123°54'2 1.4
2014-Oct-16 19:28N 49°10' W 123°56'1 0.7
2014-Oct-16 18:32N 49°10' W 123°55'1 0.7
2014-Oct-16 17:32N 49°10' W 123°56'0 0.0
2014-Oct-16 16:34N 49°10' W 123°56'2 2.3
2014-Oct-16 15:33N 49°11' W 123°53'1 0.6
2014-Oct-16 14:32N 49°11' W 123°52'0 0.1
2014-Oct-16 13:32N 49°11' W 123°52'0 0.4
2014-Oct-16 12:33N 49°11' W 123°52'0 0.0
2014-Oct-16 06:25N 49°11' W 123°52'3 2.9
2014-Oct-16 05:33N 49°10' W 123°56'1 0.7
2014-Oct-16 03:33N 49°10' W 123°54'0 0.3
2014-Oct-16 02:33N 49°11' W 123°53'1 0.9
2014-Oct-16 01:29N 49°11' W 123°52'1 0.5
2014-Oct-16 00:20N 49°11' W 123°53'0 0.4
2014-Oct-15 23:32N 49°11' W 123°53'2 1.8
2014-Oct-15 22:28N 49°10' W 123°56'2 1.8
2014-Oct-15 21:11N 49°11' W 123°52'2 2.4
2014-Oct-15 20:32N 49°10' W 123°55'1 0.7
2014-Oct-15 19:25N 49°10' W 123°56'1 1.5
2014-Oct-15 18:33N 49°10' W 123°54'1 0.9
2014-Oct-15 17:31N 49°10' W 123°55'0 0.1
2014-Oct-15 16:18N 49°10' W 123°55'1 1.4
2014-Oct-15 15:33N 49°10' W 123°54'2 1.4
2014-Oct-15 14:26N 49°11' W 123°52'0 0.5
2014-Oct-15 13:33N 49°11' W 123°52'0 0.0
2014-Oct-15 06:23N 49°11' W 123°52'1 0.6
2014-Oct-15 05:30N 49°11' W 123°52'1 0.7
2014-Oct-15 03:33N 49°10' W 123°54'0 0.2
2014-Oct-15 02:33N 49°10' W 123°53'1 1.1
2014-Oct-15 01:31N 49°11' W 123°52'0 0.1
2014-Oct-15 00:28N 49°11' W 123°52'0 0.2
2014-Oct-14 23:33N 49°11' W 123°52'3 2.7
2014-Oct-14 22:32N 49°10' W 123°56'3 2.9
2014-Oct-14 21:33N 49°11' W 123°52'1 0.6
2014-Oct-14 20:09N 49°11' W 123°53'2 2.8
2014-Oct-14 19:33N 49°10' W 123°55'1 0.4
2014-Oct-14 17:32N 49°10' W 123°54'1 1.0
2014-Oct-14 16:24N 49°10' W 123°56'1 0.6
2014-Oct-14 15:33N 49°10' W 123°55'1 1.2
2014-Oct-14 14:23N 49°11' W 123°53'0 0.0
2014-Oct-14 06:19N 49°11' W 123°53'0 0.1
2014-Oct-14 05:22N 49°11' W 123°53'1 0.8
2014-Oct-14 03:33N 49°10' W 123°55'1 0.9
2014-Oct-14 02:33N 49°11' W 123°53'0 0.3
2014-Oct-14 01:24N 49°11' W 123°53'0 0.4
2014-Oct-14 00:12N 49°11' W 123°54'1 1.2
2014-Oct-13 23:33N 49°11' W 123°52'2 2.3
2014-Oct-13 22:32N 49°10' W 123°56'3 3.0
2014-Oct-13 21:34N 49°11' W 123°52'3 2.8
2014-Oct-13 20:34N 49°10' W 123°56'0 0.1
2014-Oct-13 19:28N 49°10' W 123°56'2 2.0
2014-Oct-13 18:33N 49°11' W 123°53'2 1.6
2014-Oct-13 17:25N 49°10' W 123°56'0 0.0
2014-Oct-13 16:32N 49°10' W 123°56'2 2.4
2014-Oct-13 15:33N 49°11' W 123°52'0 0.1
2014-Oct-13 14:14N 49°11' W 123°53'0 0.5
2014-Oct-13 13:33N 49°11' W 123°52'2 0.3
2014-Oct-13 05:33N 49°10' W 123°55'3 1.8
2014-Oct-13 04:06N 49°11' W 123°52'2 4.2
2014-Oct-13 03:33N 49°10' W 123°55'1 0.8
2014-Oct-13 02:33N 49°10' W 123°54'1 1.1
2014-Oct-13 01:33N 49°11' W 123°52'1 0.6
2014-Oct-13 00:16N 49°11' W 123°53'0 0.5
2014-Oct-12 23:33N 49°11' W 123°53'2 1.4
2014-Oct-12 22:25N 49°10' W 123°55'2 2.6
2014-Oct-12 21:30N 49°11' W 123°52'3 2.5
2014-Oct-12 20:20N 49°10' W 123°56'1 1.8
2014-Oct-12 19:34N 49°10' W 123°54'2 1.5
2014-Oct-12 18:32N 49°11' W 123°52'3 2.2
2014-Oct-12 17:13N 49°10' W 123°56'2 2.1
2014-Oct-12 16:27N 49°11' W 123°54'1 0.5
2014-Oct-12 15:20N 49°11' W 123°53'1 0.4
2014-Oct-12 13:25N 49°11' W 123°52'0 0.0
2014-Oct-12 08:26N 49°11' W 123°52'0 0.0
2014-Oct-12 07:26N 49°11' W 123°52'0 0.0
2014-Oct-12 06:27N 49°11' W 123°52'0 0.0
2014-Oct-12 05:33N 49°11' W 123°52'0 0.0
2014-Oct-12 04:33N 49°11' W 123°52'1 1.3
2014-Oct-12 03:33N 49°10' W 123°53'0 0.3
2014-Oct-12 02:33N 49°11' W 123°53'1 1.0
2014-Oct-12 01:33N 49°11' W 123°52'0 0.0
2014-Oct-12 00:33N 49°11' W 123°52'1 1.5
2014-Oct-11 23:34N 49°10' W 123°54'1 1.3
2014-Oct-11 22:29N 49°10' W 123°56'3 3.1
2014-Oct-11 21:33N 49°11' W 123°52'3 2.8
2014-Oct-11 20:32N 49°10' W 123°56'0 0.0
2014-Oct-11 19:19N 49°10' W 123°56'2 3.0
2014-Oct-11 18:33N 49°11' W 123°52'2 1.5
2014-Oct-11 17:09N 49°10' W 123°56'2 3.4
2014-Oct-11 16:32N 49°11' W 123°52'1 0.5
2014-Oct-11 15:20N 49°11' W 123°53'0 0.4
2014-Oct-11 14:13N 49°10' W 123°54'0 0.0
2014-Oct-11 06:15N 49°10' W 123°54'1 0.6
2014-Oct-11 05:19N 49°11' W 123°53'1 0.4
2014-Oct-11 03:33N 49°10' W 123°54'1 0.6
2014-Oct-11 02:33N 49°11' W 123°53'0 0.2
2014-Oct-11 01:30N 49°11' W 123°53'1 0.9
2014-Oct-11 00:25N 49°11' W 123°52'1 0.5
2014-Oct-10 23:09N 49°11' W 123°53'2 3.6
2014-Oct-10 22:33N 49°10' W 123°56'2 1.7
2014-Oct-10 21:18N 49°11' W 123°53'0 0.4
2014-Oct-10 20:31N 49°11' W 123°52'2 2.2
2014-Oct-10 19:24N 49°10' W 123°56'1 1.5
2014-Oct-10 18:33N 49°10' W 123°54'1 1.1
2014-Oct-10 17:27N 49°10' W 123°56'0 0.0
2014-Oct-10 16:17N 49°10' W 123°56'1 1.9
2014-Oct-10 15:33N 49°10' W 123°54'1 0.4
2014-Oct-10 14:24N 49°11' W 123°53'1 0.5
2014-Oct-10 13:10N 49°10' W 123°54'2 0.2
2014-Oct-10 06:28N 49°11' W 123°52'  

Dump ship's entire track history